| time (UTC) | temp C | wind direction | speed KPH | gust KPH | rain 1hr cm | rain 24hr cm | rain mn cm | humidity % | barometer mb |
| 20260506134518 | 23 | 204 | 8.0 | 27.4 | 0.00 | 0.00 | 0.00 | 76 | 1015.4 |
| 20260506133015 | 22 | 247 | 4.8 | 29.0 | 0.00 | 0.00 | 0.00 | 78 | 1015.4 |
| 20260506131517 | 22 | 188 | 3.2 | 20.9 | 0.00 | 0.00 | 0.00 | 80 | 1015.3 |
| 20260506130008 | 21 | 206 | 0.0 | 25.7 | 0.00 | 0.00 | 0.00 | 83 | 1015.6 |
| 20260506124505 | 21 | 214 | 0.0 | 19.3 | 0.00 | 0.00 | 0.00 | 85 | 1015.7 |
| 20260506123003 | 20 | 220 | 0.0 | 14.5 | 0.00 | 0.00 | 0.00 | 86 | 1015.6 |
| 20260506121613 | 20 | 174 | 0.0 | 14.5 | 0.00 | 0.00 | 0.00 | 88 | 1015.6 |
| 20260506120056 | 19 | 195 | 0.0 | 11.3 | 0.00 | 0.00 | 0.00 | 89 | 1015.7 |
| 20260506114553 | 18 | 204 | 0.0 | 16.1 | 0.00 | 0.00 | 0.00 | 91 | 1016.0 |
| 20260506113049 | 17 | 172 | 0.0 | 9.7 | 0.00 | 0.00 | 0.00 | 93 | 1015.6 |
| 20260506111549 | 17 | 195 | 0.0 | 12.9 | 0.00 | 0.00 | 0.00 | 94 | 1015.5 |
| 20260506110048 | 16 | 189 | 0.0 | 4.8 | 0.00 | 0.00 | 0.00 | 95 | 1015.7 |
| 20260506104550 | 16 | 181 | 0.0 | 4.8 | 0.00 | 0.00 | 0.00 | 95 | 1015.7 |
| 20260506103047 | 16 | 183 | 0.0 | 3.2 | 0.00 | 0.00 | 0.00 | 95 | 1015.8 |
| 20260506101556 | 16 | 177 | 0.0 | 3.2 | 0.00 | 0.00 | 0.00 | 94 | 1015.6 |
| 20260506100046 | 16 | 173 | 0.0 | 1.6 | 0.00 | 0.00 | 0.00 | 94 | 1015.2 |
| 20260506094548 | 16 | 193 | 0.0 | 3.2 | 0.00 | 0.00 | 0.00 | 94 | 1015.4 |
| 20260506093044 | 16 | 187 | 0.0 | 6.4 | 0.00 | 0.00 | 0.00 | 93 | 1015.5 |
| 20260506091543 | 16 | 197 | 0.0 | 3.2 | 0.00 | 0.00 | 0.00 | 93 | 1015.8 |
| 20260506090051 | 16 | 191 | 0.0 | 4.8 | 0.00 | 0.00 | 0.00 | 93 | 1015.7 |
| 20260506084546 | 16 | 194 | 0.0 | 6.4 | 0.00 | 0.00 | 0.00 | 93 | 1015.8 |
| 20260506083040 | 16 | 185 | 0.0 | 4.8 | 0.00 | 0.00 | 0.00 | 93 | 1015.7 |
| 20260506081543 | 16 | 191 | 0.0 | 3.2 | 0.00 | 0.00 | 0.00 | 93 | 1015.6 |
| 20260506073038 | 16 | 193 | 0.0 | 4.8 | 0.00 | 0.00 | 0.00 | 93 | 1015.7 |
| 20260506071538 | 16 | 185 | 0.0 | 3.2 | 0.00 | 0.00 | 0.00 | 92 | 1015.6 |
| 20260506061520 | 17 | 177 | 0.0 | 6.4 | 0.00 | 0.00 | 0.00 | 90 | 1016.2 |
| 20260506044516 | 17 | 193 | 0.0 | 8.0 | 0.00 | 0.00 | 0.00 | 90 | 1017.0 |
| 20260506043011 | 17 | 183 | 0.0 | 4.8 | 0.00 | 0.00 | 0.00 | 90 | 1017.3 |
| 20260506031524 | 18 | 189 | 0.0 | 8.0 | 0.00 | 0.00 | 0.00 | 86 | 1017.3 |
| 20260506030027 | 18 | 195 | 0.0 | 6.4 | 0.00 | 0.00 | 0.00 | 85 | 1017.2 |
| 20260506024528 | 18 | 177 | 0.0 | 9.7 | 0.00 | 0.00 | 0.00 | 83 | 1017.3 |
| 20260506023022 | 18 | 196 | 0.0 | 9.7 | 0.00 | 0.00 | 0.00 | 82 | 1017.4 |
| 20260505213018 | 24 | 173 | 9.7 | 30.6 | 0.00 | 0.00 | 0.00 | 64 | 1015.4 |
| 20260505211519 | 24 | 235 | 8.0 | 27.4 | 0.00 | 0.00 | 0.00 | 62 | 1015.5 |
| 20260505210018 | 25 | 223 | 9.7 | 29.0 | 0.00 | 0.00 | 0.00 | 62 | 1015.6 |
| 20260505204518 | 25 | 166 | 17.7 | 29.0 | 0.00 | 0.00 | 0.00 | 61 | 1015.4 |
| 20260505203016 | 25 | 190 | 16.1 | 37.0 | 0.00 | 0.00 | 0.00 | 61 | 1015.4 |
| 20260505201515 | 25 | 166 | 6.4 | 38.6 | 0.00 | 0.00 | 0.00 | 60 | 1015.5 |
| 20260505200017 | 25 | 174 | 6.4 | 29.0 | 0.00 | 0.00 | 0.00 | 60 | 1015.9 |
| 20260505194514 | 25 | 170 | 1.6 | 30.6 | 0.00 | 0.00 | 0.00 | 61 | 1016.0 |
| 20260505193111 | 25 | 186 | 9.7 | 30.6 | 0.00 | 0.00 | 0.00 | 60 | 1016.1 |
| 20260505191523 | 26 | 193 | 3.2 | 32.2 | 0.00 | 0.00 | 0.00 | 55 | 1016.3 |
| 20260505190010 | 26 | 206 | 6.4 | 33.8 | 0.00 | 0.00 | 0.00 | 53 | 1016.5 |
| 20260505184510 | 26 | 182 | 6.4 | 27.4 | 0.00 | 0.00 | 0.00 | 52 | 1016.6 |
| 20260505183011 | 26 | 201 | 6.4 | 22.5 | 0.00 | 0.00 | 0.00 | 54 | 1016.6 |
| 20260505181508 | 26 | 201 | 1.6 | 20.9 | 0.00 | 0.00 | 0.00 | 55 | 1016.7 |
| 20260505180007 | 25 | 211 | 11.3 | 37.0 | 0.00 | 0.00 | 0.00 | 54 | 1016.7 |
| 20260505174507 | 25 | 218 | 1.6 | 33.8 | 0.00 | 0.00 | 0.00 | 54 | 1016.8 |
| 20260505173007 | 25 | 179 | 0.0 | 25.7 | 0.00 | 0.00 | 0.00 | 55 | 1016.9 |
| 20260505171506 | 25 | 203 | 3.2 | 22.5 | 0.00 | 0.00 | 0.00 | 54 | 1017.2 |
| 20260505170005 | 25 | 218 | 12.9 | 29.0 | 0.00 | 0.00 | 0.00 | 52 | 1017.3 |
| 20260505164503 | 25 | 203 | 8.0 | 24.1 | 0.00 | 0.00 | 0.00 | 54 | 1017.4 |
| 20260505163003 | 25 | 203 | 0.0 | 19.3 | 0.00 | 0.00 | 0.00 | 56 | 1017.4 |
| 20260505161610 | 24 | 237 | 8.0 | 19.3 | 0.00 | 0.00 | 0.00 | 55 | 1017.8 |
| 20260505153052 | 23 | 187 | 1.6 | 22.5 | 0.00 | 0.00 | 0.00 | 61 | 1018.1 |
| 20260505151552 | 23 | 248 | 1.6 | 22.5 | 0.00 | 0.00 | 0.00 | 61 | 1018.3 |